Station: Perth Airport  

  Atmospheric Gas Attenuation - ITU Rec 676-11   ----------------- dB/100km -----------------
Date Time Temp RH % AH g/m3 Dew Point Wind Direction Speed kph Gust kph Barometer mB Rainfall Since 9am 24GHz 47GHz 76GHz 122GHz 134GHz 241GHz
08/05 09:30 18.8 51 8.21 8.5 20 22 1030 0 18.5 24.5 36.6 95.8 88.8 305.2
08/05 09:20 18.2 53 8.24 8.5 15 19 1030.1 0 18.6 24.7 37.0 96.9 89.8 308.9
08/05 09:10 17.9 53 8.09 8.2 20 22 1030.3 0 18.3 24.6 36.6 95.7 88.3 303.5
08/05 09:00 17.5 55 8.2 8.4 22 26 1030.4 0 18.5 24.9 37.2 97.3 90.1 309.9
08/05 08:50 17.4 55 8.15 8.3 22 28 1030.4 0 18.4 24.8 37.1 96.9 89.6 308.1
08/05 08:40 17 56 8.1 8.2 22 26 1030.5 0 18.4 24.8 37.1 96.9 89.5 307.4
08/05 08:30 16.8 58 8.29 8.5 17 20 1030.5 0 18.8 25.2 37.9 99.1 92.1 316.6
08/05 08:20 16.2 58 8 7.9 17 19 1030.5 0 18.2 24.9 37.0 96.9 89.1 306.1
08/05 08:10 15.9 60 8.13 8.2 13 15 1030.4 0 18.5 25.2 37.7 98.6 91.1 313.0
08/05 08:00 15.4 62 8.15 8.2 15 17 1030.3 0 18.5 25.4 38.0 99.4 91.9 315.9
08/05 07:50 14.8 64 8.11 8.1 15 17 1030.3 0 18.5 25.5 38.1 99.7 92.1 316.5
08/05 07:40 14.2 65 7.94 7.7 17 17 1030.2 0 18.1 25.4 37.7 98.7 90.6 311.1
08/05 07:30 13.5 68 7.95 7.7 13 15 1030.1 0 18.2 25.6 38.1 99.6 91.6 314.3
08/05 07:20 12.8 70 7.84 7.5 13 15 1029.9 0 18.0 25.6 38.0 99.3 90.9 311.9
08/05 07:10 12.1 71 7.61 7 15 17 1029.8 0 17.5 25.4 37.4 97.7 88.7 304.0
08/05 07:00 12 70 7.46 6.7 15 19 1029.6 0 17.2 25.2 36.8 96.2 86.8 297.4
08/05 06:50 12 70 7.46 6.7 13 17 1029.6 0 17.2 25.2 36.8 96.2 86.8 297.4
08/05 06:40 11.8 72 7.58 6.9 13 15 1029.5 0 17.5 25.4 37.4 97.7 88.6 303.7
08/05 06:30 11.3 71 7.24 6.2 13 13 1029.5 0 16.8 25.0 36.3 94.7 84.7 289.9
08/05 06:20 11.9 68 7.2 6.2 11 15 1029.6 0 16.7 24.8 35.8 93.6 83.5 285.9
08/05 06:10 12.4 67 7.32 6.5 13 15 1029.5 0 16.9 24.8 36.1 94.3 84.5 289.5
08/05 06:00 12.6 67 7.41 6.6 17 24 1029.4 0 17.1 24.9 36.3 95.0 85.5 292.9
08/05 05:50 12.8 66 7.39 6.6 17 19 1029.5 0 17.0 24.8 36.2 94.5 85.0 291.2
08/05 05:40 12.9 65 7.33 6.5 15 17 1029.5 0 16.9 24.7 35.9 93.8 84.1 288.2
08/05 05:30 13.5 63 7.37 6.6 15 19 1029.3 0 17.0 24.6 35.8 93.5 84.0 287.7
08/05 05:20 14.2 61 7.45 6.8 17 20 1029.4 0 17.1 24.6 35.8 93.5 84.3 288.8
08/05 05:10 14 61 7.36 6.6 13 15 1029.4 0 16.9 24.5 35.5 92.8 83.3 285.5
08/05 05:00 14.2 60 7.33 6.6 13 17 1029.3 0 16.9 24.4 35.3 92.2 82.7 283.5
08/05 04:50 14.7 59 7.43 6.8 15 19 1029.3 0 17.0 24.4 35.5 92.7 83.5 286.1
08/05 04:40 15.1 58 7.48 6.9 15 17 1029.2 0 17.1 24.3 35.5 92.7 83.7 286.9
08/05 04:30 15.3 57 7.44 6.8 17 26 1029.1 0 17.0 24.2 35.2 92.1 82.9 284.4
08/05 04:20 15.5 57 7.53 7 17 19 1029.1 0 17.2 24.3 35.5 92.8 83.9 287.6
08/05 04:10 15.7 56 7.49 7 17 20 1029 0 17.1 24.2 35.3 92.1 83.1 285.1
08/05 04:00 15.5 56 7.4 6.8 15 20 1028.9 0 16.9 24.1 35.0 91.4 82.2 281.9
08/05 03:50 15.6 56 7.45 6.9 15 17 1029 0 17.0 24.2 35.1 91.8 82.7 283.7
08/05 03:40 15.5 56 7.4 6.8 15 17 1028.9 0 16.9 24.1 35.0 91.4 82.2 281.9
08/05 03:30 15.7 55 7.36 6.7 15 20 1028.8 0 16.9 24.0 34.8 90.8 81.5 279.4
08/05 03:20 15.8 55 7.4 6.8 17 22 1028.9 0 16.9 24.0 34.9 91.1 81.9 280.8
08/05 03:10 16.1 55 7.54 7.1 17 19 1028.9 0 17.2 24.2 35.3 92.2 83.3 285.8
08/05 03:00 16.1 54 7.4 6.8 17 24 1028.8 0 16.9 23.9 34.7 90.7 81.6 279.7
08/05 02:50 16.3 54 7.49 7 17 20 1028.8 0 17.1 24.0 35.0 91.4 82.5 282.9
08/05 02:40 16.3 54 7.49 7 19 22 1028.8 0 17.1 24.0 35.0 91.4 82.5 282.9
08/05 02:30 16.4 53 7.4 6.8 20 30 1028.7 0 16.9 23.9 34.6 90.4 81.3 278.7
08/05 02:20 16.5 53 7.44 6.9 22 26 1028.7 0 17.0 23.9 34.7 90.7 81.7 280.0
08/05 02:10 16.4 53 7.4 6.8 24 30 1028.7 0 16.9 23.9 34.6 90.4 81.3 278.7
08/05 02:00 16.7 52 7.39 6.8 24 35 1028.5 0 16.9 23.8 34.4 89.9 80.8 277.2
08/05 01:50 16.8 52 7.43 6.9 26 32 1028.6 0 17.0 23.8 34.5 90.2 81.2 278.6
08/05 01:40 16.7 52 7.39 6.8 20 26 1028.6 0 16.9 23.8 34.4 89.9 80.8 277.2
08/05 01:30 16.6 53 7.49 7 20 33 1028.5 0 17.1 23.9 34.8 91.0 82.2 281.8
08/05 01:20 16.2 54 7.45 6.9 19 20 1028.7 0 17.0 24.0 34.9 91.1 82.1 281.5
08/05 01:10 15.5 57 7.53 7 19 20 1028.7 0 17.2 24.3 35.5 92.7 83.8 287.5
08/05 01:00 15.3 56 7.31 6.6 17 19 1028.6 0 16.8 24.0 34.7 90.7 81.3 278.5
08/05 00:50 15.6 56 7.45 6.9 15 17 1028.7 0 17.0 24.2 35.1 91.8 82.7 283.6
08/05 00:40 15.9 54 7.31 6.6 17 17 1028.7 0 16.7 23.9 34.5 90.0 80.7 276.5
08/05 00:30 16.2 53 7.31 6.6 20 28 1028.6 0 16.7 23.8 34.3 89.7 80.4 275.4
08/05 00:20 16.2 53 7.31 6.6 22 26 1028.7 0 16.7 23.8 34.4 89.7 80.4 275.5
08/05 00:10 15.9 54 7.31 6.6 26 30 1028.7 0 16.7 23.9 34.5 90.0 80.7 276.5
08/05 00:00 16.2 53 7.31 6.6 22 26 1028.7 0 16.7 23.8 34.4 89.7 80.4 275.5
07/05 23:50 16.2 53 7.31 6.6 20 22 1028.7 0 16.7 23.8 34.4 89.7 80.4 275.5
07/05 23:40 16.1 53 7.26 6.5 20 22 1028.6 0 16.6 23.7 34.2 89.3 79.9 273.6
07/05 23:30 16.1 53 7.26 6.5 24 26 1028.6 0 16.6 23.7 34.2 89.3 79.9 273.6
07/05 23:20 16.5 51 7.16 6.3 19 20 1028.7 0 16.4 23.5 33.7 87.9 78.2 268.0
07/05 23:10 16.5 51 7.16 6.3 20 26 1028.7 0 16.4 23.5 33.7 87.9 78.2 268.0
07/05 23:00 16.7 50 7.11 6.2 20 22 1028.7 0 16.3 23.4 33.4 87.2 77.4 265.2
07/05 22:50 16.7 50 7.11 6.2 20 26 1028.7 0 16.3 23.4 33.4 87.2 77.4 265.2
07/05 22:40 16.3 52 7.21 6.4 24 26 1028.7 0 16.5 23.6 33.9 88.6 79.0 270.8
07/05 22:30 15.9 52 7.04 6.1 15 17 1028.7 0 16.2 23.5 33.5 87.4 77.4 264.8
07/05 22:20 15.9 51 6.91 5.8 15 17 1028.6 0 15.9 23.3 33.0 86.1 75.8 259.3
07/05 22:10 15.9 51 6.91 5.8 15 17 1028.5 0 15.9 23.3 33.0 86.1 75.8 259.2
07/05 22:00 16 50 6.81 5.6 15 20 1028.4 0 15.7 23.1 32.6 85.0 74.4 254.6
07/05 21:50 16.1 50 6.85 5.7 17 24 1028.5 0 15.8 23.1 32.7 85.2 74.8 256.0
07/05 21:40 16.6 49 6.92 5.9 13 15 1028.4 0 15.9 23.1 32.7 85.4 75.2 257.4
07/05 21:30 16.3 49 6.8 5.6 11 13 1028.4 0 15.6 23.0 32.4 84.5 74.0 253.3
07/05 21:20 16.9 47 6.76 5.5 11 13 1028.3 0 15.5 22.8 32.0 83.5 73.0 249.7
07/05 21:10 16.8 47 6.72 5.4 11 13 1028.2 0 15.5 22.7 31.9 83.2 72.6 248.3
07/05 21:00 16.8 48 6.86 5.7 17 20 1028.1 0 15.8 22.9 32.4 84.6 74.3 254.2
07/05 20:50 16.4 49 6.84 5.7 17 19 1028 0 15.7 23.0 32.5 84.8 74.4 254.6
07/05 20:40 16.6 49 6.92 5.9 17 19 1027.9 0 15.9 23.1 32.7 85.4 75.2 257.3
07/05 20:30 15.9 50 6.77 5.5 11 13 1027.9 0 15.6 23.0 32.4 84.6 74.0 253.1
07/05 20:20 16.2 50 6.89 5.8 11 15 1027.9 0 15.8 23.1 32.8 85.5 75.2 257.3
07/05 20:10 16.2 49 6.76 5.5 17 22 1027.9 0 15.6 22.9 32.3 84.2 73.6 251.8
07/05 20:00 16.3 50 6.94 5.9 11 15 1027.9 0 15.9 23.2 32.9 85.9 75.7 259.1
07/05 19:50 16.6 49 6.92 5.9 13 13 1027.9 0 15.9 23.1 32.7 85.4 75.2 257.3
07/05 19:40 16.4 49 6.84 5.7 13 15 1027.9 0 15.7 23.0 32.5 84.8 74.4 254.5
07/05 19:30 16.8 49 7.01 6 11 13 1027.9 0 16.1 23.2 33.0 86.0 76.1 260.5
07/05 19:20 16.8 49 7.01 6 15 15 1027.9 0 16.1 23.2 33.0 86.0 76.1 260.5
07/05 19:10 16.1 52 7.13 6.3 11 13 1027.8 0 16.4 23.5 33.7 87.9 78.2 267.8
07/05 19:00 16.2 52 7.17 6.3 13 13 1027.7 0 16.4 23.5 33.8 88.2 78.6 269.2
07/05 18:50 15.9 52 7.04 6.1 13 13 1027.7 0 16.2 23.4 33.4 87.3 77.3 264.6
07/05 18:40 16.5 51 7.16 6.3 13 13 1027.7 0 16.4 23.4 33.6 87.8 78.2 267.8
07/05 18:30 16.8 49 7.01 6 11 11 1027.6 0 16.1 23.1 33.0 86.0 76.1 260.4
07/05 18:20 17.4 46 6.82 5.7 11 13 1027.6 0 15.6 22.7 32.0 83.5 73.2 250.5
07/05 18:10 17.5 46 6.86 5.8 9 11 1027.6 0 15.7 22.7 32.1 83.8 73.6 251.9
07/05 18:00 18.1 44 6.8 5.7 11 11 1027.5 0 15.6 22.5 31.7 82.6 72.3 247.5
07/05 17:50 19.4 41 6.84 5.8 15 19 1027.5 0 15.6 22.2 31.3 81.7 71.6 245.2
07/05 17:40 19.8 40 6.83 5.8 11 11 1027.3 0 15.6 22.1 31.1 81.2 71.2 243.6
07/05 17:30 20.5 38 6.76 5.7 15 17 1027.2 0 15.4 21.9 30.6 79.8 69.7 238.7
07/05 17:20 20.9 37 6.74 5.7 19 19 1027.1 0 15.3 21.7 30.4 79.2 69.2 236.7
07/05 17:10 21.2 37 6.86 5.9 20 22 1027.1 0 15.6 21.8 30.7 80.0 70.3 240.6
07/05 17:00 21.6 36 6.83 5.9 22 24 1027.2 0 15.5 21.7 30.5 79.4 69.6 238.3

Last Refresh: 08-May-2026 11:05:31

Bureau of Meteorology